This is the latest recevied weather packets stored in our database for station/object VK4TOM-13. If no packets are shown the sender has not sent any weather packets the latest 10 day(s).
| Time | Temp. | Humidity | Pressure | Rain* | Wind** | Luminosity | Snow |
|---|---|---|---|---|---|---|---|
| 1778226222 | 20.56° C | 30% | 1017.6 hPa | 0 mm | - | - | - |
| 1778225621 | 21.11° C | 28% | 1017.3 hPa | 0 mm | - | - | - |
| 1778225020 | 22.22° C | 26% | 1017.1 hPa | 0 mm | - | - | - |
| 1778224419 | 22.78° C | 23% | 1017 hPa | 0 mm | - | - | - |
| 1778223818 | 23.33° C | 23% | 1016.8 hPa | 0 mm | - | - | - |
| 1778223217 | 23.89° C | 21% | 1016.5 hPa | 0 mm | - | - | - |
| 1778222615 | 24.44° C | 21% | 1016.4 hPa | 0 mm | - | - | - |
| 1778222015 | 24.44° C | 20% | 1016.4 hPa | 0 mm | - | - | - |
| 1778221414 | 24.44° C | 20% | 1016.2 hPa | 0 mm | - | - | - |
| 1778220813 | 24.44° C | 19% | 1016.2 hPa | 0 mm | - | - | - |
| 1778220211 | 25° C | 19% | 1016.2 hPa | 0 mm | - | - | - |
| 1778219610 | 25.56° C | 18% | 1016.1 hPa | 0 mm | - | - | - |
| 1778219009 | 26.11° C | 18% | 1016.1 hPa | 0 mm | - | - | - |
| 1778218408 | 27.22° C | 17% | 1016 hPa | 0 mm | - | - | - |
| 1778217807 | 28.33° C | 16% | 1015.9 hPa | 0 mm | - | - | - |
| 1778217206 | 28.89° C | 16% | 1015.8 hPa | 0 mm | - | - | - |
| 1778216605 | 28.33° C | 16% | 1015.9 hPa | 0 mm | - | - | - |
| 1778216004 | 28.33° C | 17% | 1016 hPa | 0 mm | - | - | - |
| 1778215403 | 28.33° C | 17% | 1016.1 hPa | 0 mm | - | - | - |
| 1778214802 | 28.33° C | 18% | 1016.1 hPa | 0 mm | - | - | - |
| 1778214201 | 28.33° C | 17% | 1016.1 hPa | 0 mm | - | - | - |
| 1778213600 | 27.78° C | 18% | 1016.3 hPa | 0 mm | - | - | - |
| 1778212998 | 28.33° C | 18% | 1016.4 hPa | 0 mm | - | - | - |
| 1778212397 | 27.78° C | 20% | 1016.6 hPa | 0 mm | - | - | - |
| 1778211797 | 27.78° C | 21% | 1016.8 hPa | 0 mm | - | - | - |
* Rain since midnight (hover to see other rain measurements)
** Current wind speed in m/s (hover to see current wind gust speed)